KMWC/MWC METAR and TAF weather

Enter ICAO airport designator
Station Type Date Time Source
KMWC METAR 2019/05/21 19:45 UTC NOAA

KMWC 211945Z 09009G14KT 060V120 10SM OVC080 12/02 A3013


Station Type Date Time Source
KMWC Decoded METAR 2019/05/21 19:45 UTC NOAA

Milwaukee / Timmerman, WI, United States (KMWC) 43-07N 088-02W
May 21, 2019 - 03:45 PM EDT / 2019.05.21 1945 UTC
Wind: from the E (090 degrees) at 10 MPH (9 KT) gusting to 16 MPH (14 KT) (direction variable):0
Visibility: 10 mile(s):0
Sky conditions: overcast
Temperature: 53 F (12 C)
Dew Point: 35 F (2 C)
Relative Humidity: 50%
Pressure (altimeter): 30.13 in. Hg (1020 hPa)
ob: KMWC 211945Z 09009G14KT 060V120 10SM OVC080 12/02 A3013
cycle: 20

Station Type Date Time Source
KMWC TAF UTC NOAA

Error!

Example: see airport list